Hillman, Ohio
Current Conditions -  °F | °C
As of 4:35 AM on Tuesday 21 Oct 2014 (Local Time) from KFGX Reporting Station
Broken Clouds Broken Clouds  
Wind Chill:   Ceiling: 5500
Heat Index:   Visibility: 7mi
Dew Point:   Wind: 5mph
Humidity: 99%   Direction: 270°W
Pressure: 29.93"   Gusts: NA
Location:  38.8698°N, 83.9081°W
Report Text: KFGX 210835Z AUTO 27004KT 7SM SCT042 SCT050 BKN055 09/09 A2993 RMK AO2 T00920090
Loading
Personal Weather Stations






























Interactive Weather Map
Tropical Storm Tracking
New forecast layout! Learn more

10-Day Weather Forecast

Advertisements
Track Severe Weather on mobile